createdAt,value
2022-10-24T00:01:18.860Z,2.33
2022-10-24T00:04:14.103Z,1.90
2022-10-24T00:07:03.879Z,2.30
2022-10-24T00:09:56.348Z,2.17
2022-10-24T00:12:44.409Z,2.03
2022-10-24T00:15:35.836Z,2.00
2022-10-24T00:18:36.780Z,1.90
2022-10-24T00:21:28.420Z,2.37
2022-10-24T00:24:31.264Z,2.97
2022-10-24T00:27:23.311Z,2.67
2022-10-24T00:30:26.315Z,2.23
2022-10-24T00:33:15.150Z,2.30
2022-10-24T00:36:03.350Z,2.87
2022-10-24T00:38:53.308Z,2.73
2022-10-24T00:42:02.253Z,2.40
2022-10-24T00:44:56.070Z,2.47
2022-10-24T00:47:45.552Z,2.33
2022-10-24T00:50:38.351Z,3.10
2022-10-24T00:57:10.385Z,2.67
2022-10-24T01:00:07.094Z,2.50
2022-10-24T01:03:10.840Z,2.93
2022-10-24T01:06:24.415Z,2.63
2022-10-24T01:09:38.527Z,2.63
2022-10-24T01:12:57.813Z,2.93
2022-10-24T01:16:04.821Z,2.73
2022-10-24T01:19:28.003Z,2.97
2022-10-24T01:22:24.696Z,2.43
2022-10-24T01:25:38.441Z,2.30
2022-10-24T01:29:06.138Z,2.30
2022-10-24T01:32:32.985Z,3.00
2022-10-24T01:35:46.445Z,2.07
2022-10-24T01:38:47.131Z,2.83
2022-10-24T01:41:39.297Z,2.03
2022-10-24T01:44:36.299Z,2.20
2022-10-24T01:47:43.708Z,2.10
2022-10-24T01:50:35.422Z,1.87
2022-10-24T01:53:25.338Z,2.27
2022-10-24T01:56:17.489Z,2.00
2022-10-24T02:00:13.054Z,1.70
2022-10-24T02:19:00.457Z,2.75
2022-10-24T02:22:19.881Z,1.87
2022-10-24T02:25:29.000Z,1.90
2022-10-24T02:28:32.748Z,1.80
2022-10-24T02:31:29.229Z,2.13
2022-10-24T02:34:22.225Z,1.80
2022-10-24T02:37:12.245Z,1.87
2022-10-24T02:40:02.045Z,1.70
2022-10-24T02:42:53.370Z,1.57
2022-10-24T02:45:43.497Z,1.77
2022-10-24T02:48:36.295Z,2.40
2022-10-24T02:51:29.288Z,1.40
2022-10-24T02:54:16.972Z,1.47
2022-10-24T02:57:13.712Z,1.80
2022-10-24T03:00:04.585Z,1.80
2022-10-24T03:02:54.809Z,2.27
2022-10-24T03:05:57.337Z,1.63
2022-10-24T03:08:52.251Z,1.80
2022-10-24T03:11:42.859Z,1.27
2022-10-24T03:14:32.159Z,1.63
2022-10-24T03:17:22.238Z,1.60
2022-10-24T03:20:10.999Z,1.87
2022-10-24T03:23:00.871Z,1.73
2022-10-24T03:25:56.609Z,1.40
2022-10-24T03:28:48.730Z,2.03
2022-10-24T03:31:43.887Z,1.57
2022-10-24T03:34:40.098Z,1.53
2022-10-24T03:37:32.590Z,2.57
2022-10-24T03:40:26.724Z,1.43
2022-10-24T03:43:21.957Z,2.37
2022-10-24T03:46:12.528Z,1.37
2022-10-24T03:55:08.065Z,1.30
2022-10-24T03:58:00.045Z,1.03
2022-10-24T04:00:50.839Z,1.40
2022-10-24T04:03:41.416Z,1.73
2022-10-24T04:06:37.242Z,2.23
2022-10-24T04:09:24.701Z,1.50
2022-10-24T04:12:24.829Z,1.57
2022-10-24T04:15:15.474Z,1.80
2022-10-24T04:18:04.341Z,1.73
2022-10-24T04:20:52.862Z,1.10
2022-10-24T04:23:49.041Z,1.40
2022-10-24T04:26:44.333Z,1.57
2022-10-24T04:29:34.622Z,1.27
2022-10-24T04:32:31.740Z,1.00
2022-10-24T04:35:25.905Z,2.20
2022-10-24T04:38:18.099Z,1.63
2022-10-24T04:41:23.691Z,1.70
2022-10-24T04:44:11.016Z,1.60
2022-10-24T04:46:58.417Z,1.70
2022-10-24T04:49:54.048Z,1.77
2022-10-24T04:52:42.188Z,1.60
2022-10-24T04:55:31.643Z,1.30
2022-10-24T04:58:22.437Z,1.80
2022-10-24T05:01:14.677Z,1.07
2022-10-24T05:04:07.261Z,1.40
2022-10-24T05:07:07.581Z,1.40
2022-10-24T05:09:55.629Z,1.43
2022-10-24T05:12:50.316Z,1.90
2022-10-24T05:15:40.837Z,1.47
2022-10-24T05:18:31.791Z,1.43
2022-10-24T05:21:22.355Z,1.50
2022-10-24T05:24:25.030Z,1.95
2022-10-24T05:27:21.338Z,1.30
2022-10-24T05:30:14.473Z,1.23
2022-10-24T05:33:09.572Z,1.37
2022-10-24T05:36:00.013Z,1.23
2022-10-24T05:39:02.790Z,1.30
2022-10-24T05:41:55.352Z,1.30
2022-10-24T05:44:52.180Z,1.47
2022-10-24T05:47:56.820Z,0.90
2022-10-24T05:59:49.433Z,1.17
2022-10-24T06:02:31.740Z,1.30
2022-10-24T06:05:24.397Z,1.10
2022-10-24T06:08:52.155Z,1.10
2022-10-24T06:11:59.055Z,1.13
2022-10-24T06:14:50.495Z,1.67
2022-10-24T06:17:57.857Z,1.40
2022-10-24T06:20:45.381Z,1.30
2022-10-24T06:23:33.191Z,1.37
2022-10-24T06:26:23.197Z,1.47
2022-10-24T06:29:11.657Z,1.87
2022-10-24T06:31:59.258Z,1.30
2022-10-24T06:34:46.722Z,1.33
2022-10-24T06:37:34.314Z,1.30
2022-10-24T06:40:21.908Z,1.20
2022-10-24T06:43:09.508Z,1.70
2022-10-24T07:05:39.592Z,1.40
2022-10-24T07:08:52.707Z,1.57
2022-10-24T07:11:49.575Z,1.80
2022-10-24T07:14:47.596Z,1.17
2022-10-24T07:17:44.415Z,1.63
2022-10-24T07:23:32.256Z,1.73
2022-10-24T07:26:24.988Z,1.20
2022-10-24T07:29:46.860Z,1.90
2022-10-24T07:32:39.466Z,1.58
2022-10-24T07:35:38.100Z,1.73
2022-10-24T07:38:25.931Z,1.55
2022-10-24T07:41:29.038Z,1.50
2022-10-24T07:44:29.453Z,2.50
2022-10-24T07:54:00.227Z,1.40
2022-10-24T07:56:57.089Z,2.13
2022-10-24T08:00:15.474Z,1.10
2022-10-24T08:03:08.084Z,1.57
2022-10-24T08:10:13.862Z,1.47
2022-10-24T08:13:21.790Z,1.83
2022-10-24T08:16:22.441Z,1.52
2022-10-24T08:19:19.220Z,1.47
2022-10-24T08:22:07.299Z,1.50
2022-10-24T08:25:20.442Z,2.03
2022-10-24T08:28:19.136Z,1.30
2022-10-24T08:37:27.409Z,1.90
2022-10-24T08:40:27.514Z,1.77
2022-10-24T08:47:13.627Z,1.67
2022-10-24T08:57:52.802Z,1.30
2022-10-24T09:01:15.589Z,1.30
2022-10-24T10:22:50.944Z,2.00
2022-10-24T10:25:41.340Z,2.27
2022-10-24T10:28:35.312Z,1.83
2022-10-24T10:31:55.960Z,1.67
2022-10-24T10:35:02.394Z,1.37
2022-10-24T10:38:42.267Z,1.50
2022-10-24T10:42:00.235Z,2.03
2022-10-24T10:45:11.062Z,1.57
2022-10-24T10:51:42.585Z,0.90
2022-10-24T10:55:02.482Z,1.97
2022-10-24T11:02:21.883Z,1.80
2022-10-24T11:05:41.218Z,1.93
2022-10-24T11:09:33.702Z,1.67
2022-10-24T11:12:28.459Z,1.20
2022-10-24T11:15:33.053Z,1.70
2022-10-24T11:18:31.580Z,1.30
2022-10-24T11:21:26.333Z,1.20
2022-10-24T11:24:25.919Z,1.40
2022-10-24T11:27:25.055Z,1.50
2022-10-24T11:30:42.312Z,1.40
2022-10-24T11:34:08.240Z,1.67
2022-10-24T11:37:24.562Z,1.20
2022-10-24T11:40:34.753Z,1.50
2022-10-24T11:47:15.302Z,1.23
2022-10-24T11:50:21.904Z,1.03
2022-10-24T11:53:29.731Z,1.13
2022-10-24T11:56:46.938Z,1.20
2022-10-24T11:59:55.592Z,0.97
2022-10-24T12:03:20.696Z,1.00
2022-10-24T12:10:17.975Z,1.37
2022-10-24T12:14:03.844Z,1.33
2022-10-24T12:20:31.790Z,1.30
2022-10-24T14:27:30.898Z,1.93
2022-10-24T14:30:24.668Z,1.53
2022-10-24T14:33:20.506Z,2.13
2022-10-24T14:36:11.214Z,1.70
2022-10-24T14:39:11.133Z,2.20
2022-10-24T14:45:23.978Z,1.53
2022-10-24T14:48:30.224Z,1.97
2022-10-24T14:51:39.126Z,1.80
2022-10-24T14:55:08.925Z,2.03
2022-10-24T14:58:33.983Z,2.03
2022-10-24T15:01:27.122Z,1.80
2022-10-24T15:04:38.702Z,1.53
2022-10-24T15:07:44.923Z,2.27
2022-10-24T15:10:58.404Z,1.90
2022-10-24T15:14:08.786Z,2.27
2022-10-24T15:17:20.641Z,2.00
2022-10-24T15:20:22.294Z,2.37
2022-10-24T15:23:29.251Z,2.20
2022-10-24T15:26:50.477Z,2.63
2022-10-24T15:29:49.379Z,2.07
2022-10-24T15:32:45.416Z,2.37
2022-10-24T15:36:00.606Z,2.63
2022-10-24T15:39:26.200Z,1.90
2022-10-24T15:42:16.448Z,2.07
2022-10-24T15:45:33.119Z,3.07
2022-10-24T15:48:22.833Z,2.27
2022-10-24T15:51:34.968Z,2.13
2022-10-24T15:54:32.683Z,2.20
2022-10-24T15:57:35.763Z,2.90
2022-10-24T16:00:31.880Z,2.43
2022-10-24T16:03:30.132Z,2.00
2022-10-24T16:06:19.744Z,2.43
2022-10-24T16:09:19.096Z,3.33
2022-10-24T16:12:25.803Z,2.13
2022-10-24T16:15:41.215Z,2.27
2022-10-24T16:53:41.998Z,2.30
2022-10-24T16:56:55.415Z,3.10
2022-10-24T17:03:31.497Z,1.73
2022-10-24T17:06:31.510Z,2.90
2022-10-24T17:13:39.114Z,2.50
2022-10-24T17:19:45.972Z,2.77
2022-10-24T17:22:50.892Z,2.40
2022-10-24T17:26:02.558Z,2.43
2022-10-24T17:28:53.653Z,3.30
2022-10-24T17:32:12.007Z,3.20
2022-10-24T17:35:10.700Z,4.33
2022-10-24T17:38:28.702Z,2.90
2022-10-24T17:44:46.514Z,3.90
2022-10-24T17:47:38.447Z,3.10
2022-10-24T17:50:41.054Z,3.20
2022-10-24T17:53:29.218Z,3.60
2022-10-24T17:56:25.872Z,3.80
2022-10-24T17:59:18.965Z,3.43
2022-10-24T18:19:31.655Z,3.33
2022-10-24T18:49:54.711Z,3.80
2022-10-24T18:53:22.112Z,3.43
2022-10-24T19:23:44.574Z,3.80
2022-10-24T19:33:30.231Z,3.93
2022-10-24T19:36:19.370Z,3.83
2022-10-24T19:48:58.276Z,3.90
2022-10-24T19:51:45.998Z,4.53
2022-10-24T19:54:33.605Z,4.50
2022-10-24T20:22:26.366Z,4.50
2022-10-24T20:25:14.057Z,3.97
2022-10-24T20:28:02.153Z,3.77
2022-10-24T20:30:49.354Z,4.10
2022-10-24T20:33:36.913Z,3.53
2022-10-24T20:36:24.701Z,3.13
2022-10-24T20:42:16.061Z,3.30
2022-10-24T20:45:04.044Z,2.67
2022-10-24T20:50:56.309Z,3.00
2022-10-24T20:53:44.284Z,2.87
2022-10-24T20:56:31.925Z,3.20
2022-10-24T21:05:53.068Z,2.63
2022-10-24T21:08:40.647Z,2.57
2022-10-24T21:14:20.569Z,2.70
2022-10-24T21:20:25.156Z,2.90
2022-10-24T21:23:12.574Z,3.07
2022-10-24T21:29:34.015Z,3.63
2022-10-24T21:32:21.743Z,4.03
2022-10-24T21:35:09.037Z,3.37
2022-10-24T21:37:56.476Z,3.40
2022-10-24T21:40:44.215Z,4.07
2022-10-24T21:43:33.619Z,3.70
2022-10-24T21:49:41.382Z,3.53
2022-10-24T21:52:29.199Z,4.17
2022-10-24T21:58:05.651Z,4.47
2022-10-24T22:00:53.093Z,3.50
2022-10-24T22:03:40.621Z,3.57
2022-10-24T22:06:54.804Z,3.50
2022-10-24T22:13:10.309Z,3.43
2022-10-24T22:15:58.289Z,3.63
2022-10-24T22:18:46.489Z,3.10
2022-10-24T22:21:56.289Z,3.40
2022-10-24T22:24:43.760Z,3.30
2022-10-24T22:27:30.975Z,3.57
2022-10-24T22:33:37.967Z,3.23
2022-10-24T22:36:46.306Z,2.70
2022-10-24T22:39:33.875Z,3.20
2022-10-24T22:42:21.550Z,2.70
2022-10-24T22:45:12.559Z,3.30
2022-10-24T22:48:16.426Z,3.67
2022-10-24T22:51:04.439Z,2.60
2022-10-24T22:53:51.891Z,3.40
2022-10-24T22:59:55.735Z,2.00
2022-10-24T23:05:59.855Z,2.30
2022-10-24T23:08:47.034Z,2.10
2022-10-24T23:11:34.339Z,1.83
2022-10-24T23:14:22.077Z,1.80
2022-10-24T23:17:13.379Z,2.03
2022-10-24T23:20:01.020Z,1.90
2022-10-24T23:22:54.508Z,1.80
2022-10-24T23:26:20.708Z,3.13
2022-10-24T23:29:18.628Z,1.80
2022-10-24T23:32:12.349Z,3.00
2022-10-24T23:35:20.146Z,2.80
2022-10-24T23:38:36.286Z,2.87
2022-10-24T23:41:24.223Z,2.20
2022-10-24T23:48:11.366Z,2.70
2022-10-24T23:53:53.440Z,2.70
2022-10-24T23:56:40.942Z,2.33
2022-10-24T23:59:29.221Z,2.40
